Impacts TAF Board
For situational awareness. Not to be used for flight planning purposes.
IDs:

KEYW - Key West Intl, FL, US

Issued at 0900 UTC 26 Sep 2018
Updated at 1038 UTC 26 Sep 2018
Potential Impact None Slight Moderate High
Time0953Z 26/11Z 26/12Z 26/13Z 26/14Z 26/15Z 26/16Z 26/17Z 26/18Z 26/19Z 26/20Z 26/21Z 26/22Z 26/23Z>>
Type OBS PRVL PRVL PRVL PRVL PRVL PRVL PRVL PRVL PRVL PRVL PRVL PRVL PRVL
VIS 10 >6 >6 >6 >6 >6 >6 >6 >6 >6 >6 >6 >6 >6
CIG -- -- -- -- -- -- -- -- -- -- -- -- -- --
Cover CLR FEW FEW FEW FEW FEW FEW FEW FEW FEW FEW FEW FEW FEW
FltCat VFR VFR VFR VFR VFR VFR VFR VFR VFR VFR VFR VFR VFR VFR
WX -- -- -- -- -- -- -- -- -- -- -- -- -- --
WDir 90 100 100 100 100 100 100 100 100 100 100 100 100 100
WSpd 8 9 9 9 9 9 9 9 9 9 9 9 9 9
WGst -- -- -- -- -- -- -- -- -- -- -- -- -- --
Raw TAF
KEYW 260900Z 2609/2706 10009KT P6SM FEW023

Raw METAR
KEYW 260953Z AUTO 09008KT 10SM CLR 29/24 A3001 RMK AO2 SLP163 T02940244
KEYW 260853Z AUTO 10009KT 10SM CLR 29/24 A3000 RMK AO2 SLP159 T02940244 56020
KEYW 260753Z AUTO 10007KT 10SM CLR 29/25 A3000 RMK AO2 SLP159 T02940250

METAR Board
Radar Display
Forecast Discussion
For situational awareness. Not to be used for flight planning purposes.